createdAt,value
2022-08-22T00:00:32.158Z,15.83
2022-08-22T00:02:53.438Z,16.91
2022-08-22T00:03:11.075Z,16.41
2022-08-22T00:03:12.644Z,15.68
2022-08-22T00:06:07.807Z,15.67
2022-08-22T00:11:11.562Z,15.53
2022-08-22T00:16:13.789Z,15.28
2022-08-22T00:21:19.925Z,15.28
2022-08-22T00:26:45.218Z,15.08
2022-08-22T00:31:47.227Z,14.92
2022-08-22T00:37:02.269Z,14.79
2022-08-22T00:42:37.331Z,14.74
2022-08-22T00:47:56.632Z,14.79
2022-08-22T00:53:02.910Z,14.72
2022-08-22T00:58:37.122Z,14.75
2022-08-22T01:03:46.696Z,14.68
2022-08-22T01:09:01.347Z,14.70
2022-08-22T01:14:34.326Z,14.64
2022-08-22T01:20:02.662Z,14.72
2022-08-22T01:25:18.274Z,14.70
2022-08-22T01:30:46.744Z,14.54
2022-08-22T01:36:01.899Z,14.53
2022-08-22T01:41:45.551Z,14.49
2022-08-22T01:46:59.260Z,14.54
2022-08-22T01:52:05.805Z,14.64
2022-08-22T01:57:07.782Z,14.66
2022-08-22T02:02:20.349Z,14.52
2022-08-22T02:07:38.845Z,14.56
2022-08-22T02:12:41.971Z,14.46
2022-08-22T02:17:54.725Z,14.51
2022-08-22T02:23:17.788Z,14.36
2022-08-22T02:28:30.262Z,14.23
2022-08-22T02:33:49.149Z,14.19
2022-08-22T02:39:47.451Z,14.18
2022-08-22T02:45:00.530Z,14.27
2022-08-22T02:50:15.372Z,14.34
2022-08-22T02:55:21.319Z,14.34
2022-08-22T03:00:32.401Z,14.30
2022-08-22T03:05:45.764Z,14.14
2022-08-22T03:11:00.418Z,14.09
2022-08-22T03:16:04.342Z,13.99
2022-08-22T03:21:30.297Z,13.97
2022-08-22T03:26:36.433Z,13.95
2022-08-22T03:31:33.024Z,13.70
2022-08-22T03:36:31.375Z,13.58
2022-08-22T03:41:56.915Z,13.53
2022-08-22T03:47:05.218Z,13.36
2022-08-22T03:52:01.578Z,13.16
2022-08-22T03:57:06.051Z,13.13
2022-08-22T04:02:41.813Z,13.04
2022-08-22T04:07:59.060Z,13.01
2022-08-22T04:13:29.051Z,13.02
2022-08-22T04:18:50.004Z,13.00
2022-08-22T04:24:08.126Z,12.93
2022-08-22T04:29:14.559Z,13.01
2022-08-22T04:34:21.046Z,13.14
2022-08-22T04:39:48.667Z,13.32
2022-08-22T04:44:56.024Z,13.58
2022-08-22T04:50:19.193Z,13.76
2022-08-22T04:55:21.626Z,13.96
2022-08-22T05:00:18.080Z,14.08
2022-08-22T05:05:21.878Z,14.23
2022-08-22T05:10:40.950Z,14.37
2022-08-22T05:15:44.032Z,14.51
2022-08-22T05:20:46.709Z,14.61
2022-08-22T05:25:50.935Z,14.66
2022-08-22T05:30:48.866Z,14.85
2022-08-22T05:35:57.739Z,15.33
2022-08-22T05:41:00.857Z,16.08
2022-08-22T05:45:58.925Z,16.58
2022-08-22T05:50:58.443Z,16.52
2022-08-22T05:56:11.993Z,16.56
2022-08-22T06:01:29.384Z,16.67
2022-08-22T06:06:29.938Z,16.70
2022-08-22T06:11:38.828Z,17.27
2022-08-22T06:16:48.149Z,17.10
2022-08-22T06:21:49.441Z,17.00
2022-08-22T06:26:51.006Z,17.14
2022-08-22T06:31:48.902Z,16.86
2022-08-22T06:36:48.526Z,16.61
2022-08-22T06:42:23.112Z,16.95
2022-08-22T06:47:27.898Z,18.03
2022-08-22T06:52:27.281Z,18.72
2022-08-22T06:57:36.882Z,19.31
2022-08-22T07:02:40.894Z,19.26
2022-08-22T07:07:38.011Z,19.61
2022-08-22T07:12:37.740Z,19.61
2022-08-22T07:17:36.894Z,20.05
2022-08-22T07:22:38.024Z,20.42
2022-08-22T07:27:48.998Z,20.20
2022-08-22T07:32:57.784Z,20.20
2022-08-22T07:38:26.660Z,20.31
2022-08-22T07:43:33.237Z,20.39
2022-08-22T07:48:59.298Z,20.53
2022-08-22T07:54:07.098Z,21.28
2022-08-22T07:59:17.609Z,21.23
2022-08-22T08:04:19.480Z,21.53
2022-08-22T08:09:16.864Z,21.35
2022-08-22T08:14:14.778Z,21.29
2022-08-22T08:19:12.590Z,21.07
2022-08-22T08:24:19.857Z,21.44
2022-08-22T08:29:18.667Z,22.33
2022-08-22T08:34:23.618Z,22.83
2022-08-22T08:39:35.458Z,23.37
2022-08-22T08:45:01.728Z,23.07
2022-08-22T08:50:20.611Z,23.60
2022-08-22T08:55:33.075Z,23.48
2022-08-22T09:00:45.927Z,24.26
2022-08-22T09:06:07.081Z,25.09
2022-08-22T09:11:46.349Z,25.55
2022-08-22T09:17:08.689Z,25.08
2022-08-22T09:22:31.732Z,25.47
2022-08-22T09:27:48.900Z,25.96
2022-08-22T09:32:57.654Z,26.22
2022-08-22T09:38:09.076Z,25.87
2022-08-22T09:43:11.024Z,26.39
2022-08-22T09:48:29.406Z,27.08
2022-08-22T09:53:43.943Z,27.14
2022-08-22T09:58:51.399Z,27.43
2022-08-22T10:04:25.897Z,27.46
2022-08-22T10:09:31.147Z,27.61
2022-08-22T10:15:09.924Z,28.34
2022-08-22T10:20:21.241Z,28.29
2022-08-22T10:25:41.736Z,27.88
2022-08-22T10:30:49.289Z,28.01
2022-08-22T10:36:07.919Z,27.91
2022-08-22T10:41:17.477Z,27.03
2022-08-22T10:46:24.446Z,26.56
2022-08-22T10:51:36.702Z,26.92
2022-08-22T10:56:51.886Z,26.52
2022-08-22T11:02:13.251Z,26.25
2022-08-22T11:07:48.945Z,26.65
2022-08-22T11:13:13.881Z,26.85
2022-08-22T11:18:33.813Z,26.95
2022-08-22T11:23:44.702Z,27.19
2022-08-22T11:29:14.215Z,27.43
2022-08-22T11:34:41.019Z,28.04
2022-08-22T11:40:14.623Z,27.41
2022-08-22T11:45:19.837Z,27.57
2022-08-22T11:50:42.120Z,28.11
2022-08-22T11:56:07.413Z,28.51
2022-08-22T12:01:17.290Z,28.86
2022-08-22T12:06:43.085Z,28.48
2022-08-22T12:12:09.942Z,28.35
2022-08-22T12:17:50.585Z,27.82
2022-08-22T12:22:56.252Z,28.51
2022-08-22T12:27:56.892Z,28.83
2022-08-22T12:33:13.131Z,27.61
2022-08-22T12:38:29.411Z,28.00
2022-08-22T12:44:04.483Z,27.68
2022-08-22T12:49:12.738Z,27.92
2022-08-22T12:54:39.276Z,28.96
2022-08-22T12:59:40.356Z,28.55
2022-08-22T13:04:47.890Z,29.32
2022-08-22T13:09:52.243Z,29.73
2022-08-22T13:14:54.494Z,30.58
2022-08-22T13:20:29.813Z,29.91
2022-08-22T13:25:50.028Z,30.37
2022-08-22T13:30:53.198Z,29.76
2022-08-22T13:35:54.424Z,28.79
2022-08-22T13:40:52.723Z,29.20
2022-08-22T13:45:58.593Z,30.41
2022-08-22T13:51:08.125Z,30.23
2022-08-22T13:56:17.721Z,30.07
2022-08-22T14:02:02.145Z,30.14
2022-08-22T14:07:19.618Z,29.53
2022-08-22T14:12:25.111Z,29.27
2022-08-22T14:17:28.759Z,29.15
2022-08-22T14:22:31.845Z,28.85
2022-08-22T14:27:36.446Z,30.08
2022-08-22T14:33:16.478Z,29.87
2022-08-22T14:38:31.448Z,29.50
2022-08-22T14:43:34.910Z,29.52
2022-08-22T14:48:44.236Z,29.54
2022-08-22T14:53:40.812Z,29.22
2022-08-22T14:59:01.340Z,28.14
2022-08-22T15:04:08.381Z,27.78
2022-08-22T15:09:11.377Z,27.45
2022-08-22T15:14:21.660Z,27.37
2022-08-22T15:19:33.112Z,27.15
2022-08-22T15:24:30.528Z,26.98
2022-08-22T15:29:31.022Z,26.76
2022-08-22T15:34:33.950Z,26.40
2022-08-22T15:39:35.325Z,26.20
2022-08-22T15:44:40.461Z,26.09
2022-08-22T15:49:51.758Z,25.79
2022-08-22T15:54:54.555Z,25.72
2022-08-22T16:00:23.959Z,25.58
2022-08-22T16:05:39.508Z,25.43
2022-08-22T16:10:46.190Z,25.35
2022-08-22T16:15:52.878Z,25.30
2022-08-22T16:20:55.390Z,25.12
2022-08-22T16:25:52.792Z,24.75
2022-08-22T16:30:49.917Z,24.13
2022-08-22T16:36:26.348Z,23.83
2022-08-22T16:41:37.288Z,23.23
2022-08-22T16:46:38.675Z,23.03
2022-08-22T16:51:37.782Z,23.23
2022-08-22T16:57:07.618Z,23.02
2022-08-22T17:02:23.417Z,22.60
2022-08-22T17:07:42.113Z,22.32
2022-08-22T17:13:00.883Z,22.34
2022-08-22T17:18:51.848Z,22.34
2022-08-22T17:24:06.862Z,22.17
2022-08-22T17:29:21.043Z,22.10
2022-08-22T17:34:33.323Z,21.99
2022-08-22T17:39:39.171Z,21.89
2022-08-22T17:45:17.039Z,21.89
2022-08-22T17:50:16.470Z,21.91
2022-08-22T17:55:27.316Z,21.84
2022-08-22T18:00:33.175Z,21.70
2022-08-22T18:05:35.365Z,21.62
2022-08-22T18:10:57.671Z,21.42
2022-08-22T18:16:06.094Z,21.39
2022-08-22T18:21:08.488Z,21.33
2022-08-22T18:26:36.188Z,21.18
2022-08-22T18:31:46.364Z,21.06
2022-08-22T18:36:55.991Z,21.10
2022-08-22T18:42:07.202Z,21.11
2022-08-22T18:47:24.524Z,21.16
2022-08-22T18:52:31.681Z,21.18
2022-08-22T18:57:58.766Z,21.15
2022-08-22T19:03:05.894Z,21.18
2022-08-22T19:08:53.627Z,21.24
2022-08-22T19:14:27.739Z,21.23
2022-08-22T19:20:07.827Z,21.34
2022-08-22T19:25:26.082Z,21.12
2022-08-22T19:30:41.375Z,20.97
2022-08-22T19:35:49.799Z,20.89
2022-08-22T19:40:46.148Z,20.93
2022-08-22T19:45:42.860Z,20.90
2022-08-22T19:50:44.278Z,20.90
2022-08-22T19:56:01.550Z,20.94
2022-08-22T20:01:01.975Z,20.96
2022-08-22T20:06:33.752Z,20.85
2022-08-22T20:11:46.472Z,20.70
2022-08-22T20:17:03.739Z,20.68
2022-08-22T20:22:01.215Z,20.67
2022-08-22T20:27:13.758Z,20.66
2022-08-22T20:32:14.990Z,20.59
2022-08-22T20:37:32.317Z,20.63
2022-08-22T20:42:33.800Z,20.65
2022-08-22T20:47:40.740Z,20.78
2022-08-22T20:52:54.210Z,21.19
2022-08-22T20:57:56.023Z,21.29
2022-08-22T21:03:02.392Z,21.30
2022-08-22T21:08:04.361Z,21.28
2022-08-22T21:13:11.092Z,21.19
2022-08-22T21:18:09.779Z,21.21
2022-08-22T21:23:11.962Z,21.19
2022-08-22T21:28:08.359Z,21.14
2022-08-22T21:33:04.732Z,20.97
2022-08-22T21:38:02.254Z,20.66
2022-08-22T21:43:02.001Z,20.52
2022-08-22T21:47:59.175Z,20.34
2022-08-22T21:52:55.595Z,20.43
2022-08-22T21:58:35.062Z,20.61
2022-08-22T22:03:36.583Z,20.74
2022-08-22T22:08:33.502Z,20.84
2022-08-22T22:13:30.458Z,20.89
2022-08-22T22:18:30.780Z,20.92
2022-08-22T22:23:28.095Z,20.92
2022-08-22T22:28:37.990Z,20.97
2022-08-22T22:33:39.025Z,21.04
2022-08-22T22:38:36.365Z,21.02
2022-08-22T22:43:32.742Z,20.98
2022-08-22T22:48:29.386Z,21.01
2022-08-22T22:53:38.236Z,20.97
2022-08-22T22:58:35.805Z,20.95
2022-08-22T23:03:32.154Z,20.96
2022-08-22T23:08:28.514Z,20.90
2022-08-22T23:13:24.898Z,20.78
2022-08-22T23:18:21.281Z,20.72
2022-08-22T23:23:26.903Z,20.66
2022-08-22T23:28:23.324Z,20.61
2022-08-22T23:33:19.721Z,20.51
2022-08-22T23:38:16.085Z,20.46
2022-08-22T23:43:16.579Z,20.44
2022-08-22T23:48:12.920Z,20.39
2022-08-22T23:53:09.310Z,20.46
2022-08-22T23:58:05.691Z,20.42
